createdAt,value
2018-02-18T10:40:32.550Z,24.00
2018-02-18T10:41:35.972Z,23.99
2018-02-18T10:42:39.362Z,24.00
2018-02-18T10:43:42.992Z,24.04
2018-02-18T10:44:46.442Z,24.01
2018-02-18T10:45:50.001Z,24.05
2018-02-18T10:46:53.598Z,24.07
2018-02-18T10:47:57.221Z,24.10
2018-02-18T10:49:00.786Z,24.10
2018-02-18T10:50:04.278Z,24.12
2018-02-18T10:51:07.754Z,24.14
2018-02-18T10:52:11.147Z,24.15
2018-02-18T10:53:14.604Z,24.18
2018-02-18T10:54:19.168Z,24.18
2018-02-18T10:55:22.793Z,24.22
2018-02-18T10:56:26.218Z,24.24
2018-02-18T10:57:29.600Z,24.25
2018-02-18T10:58:33.078Z,24.27
2018-02-18T11:10:28.242Z,24.35
2018-02-18T11:11:31.390Z,24.36
2018-02-18T11:12:34.626Z,24.32
2018-02-18T11:13:37.863Z,24.36
2018-02-18T11:14:41.004Z,24.35
2018-02-18T11:15:44.312Z,24.34
2018-02-18T11:16:47.467Z,24.34
2018-02-18T11:17:55.990Z,24.35
2018-02-18T11:18:59.151Z,24.38
2018-02-18T11:20:02.210Z,24.35
2018-02-18T11:21:05.527Z,24.39
2018-02-18T11:22:08.572Z,24.41
2018-02-18T11:23:11.641Z,24.42
2018-02-18T11:24:14.648Z,24.44
2018-02-18T11:25:18.341Z,24.45
2018-02-18T11:26:21.406Z,24.48
2018-02-18T11:27:24.465Z,24.48
2018-02-18T11:28:27.476Z,24.45
2018-02-18T11:29:30.552Z,24.44
2018-02-18T11:30:33.598Z,24.42
2018-02-18T11:31:36.694Z,24.41
2018-02-18T11:32:39.747Z,24.42
2018-02-18T11:33:42.759Z,24.39
2018-02-18T11:34:45.795Z,24.27
2018-02-18T11:35:48.810Z,24.07
2018-02-18T11:36:51.852Z,23.87
2018-02-18T11:37:54.985Z,23.66
2018-02-18T11:38:57.999Z,23.46
2018-02-18T11:40:01.206Z,23.29
2018-02-18T11:41:04.464Z,23.17
2018-02-18T11:42:07.967Z,23.01
2018-02-18T11:43:11.367Z,22.94
2018-02-18T11:44:14.387Z,22.81
2018-02-18T11:45:17.402Z,22.74
2018-02-18T11:46:20.453Z,22.73
2018-02-18T11:47:23.471Z,22.80
2018-02-18T11:48:26.487Z,22.86
2018-02-18T11:49:29.506Z,22.94
2018-02-18T11:50:32.550Z,23.01
2018-02-18T11:51:35.596Z,23.13
2018-02-18T11:52:38.646Z,23.17
2018-02-18T11:53:41.713Z,23.28
2018-02-18T11:54:44.751Z,23.38
2018-02-18T11:55:47.787Z,23.46
2018-02-18T11:56:50.999Z,23.59
2018-02-18T11:57:54.060Z,23.69
2018-02-18T11:58:57.058Z,23.80
2018-02-18T12:00:00.200Z,23.84
2018-02-18T12:01:03.820Z,23.94
2018-02-18T12:02:06.821Z,24.03
2018-02-18T12:03:09.890Z,24.11
2018-02-18T12:04:12.890Z,24.17
2018-02-18T12:05:15.896Z,24.25
2018-02-18T12:06:18.949Z,24.32
2018-02-18T12:07:21.998Z,24.41
2018-02-18T12:08:25.046Z,24.48
2018-02-18T12:09:29.040Z,24.51
2018-02-18T12:10:32.114Z,24.59
2018-02-18T12:11:35.309Z,24.63
2018-02-18T12:12:38.406Z,24.70
2018-02-18T12:13:41.453Z,24.77
2018-02-18T12:14:44.467Z,24.83
2018-02-18T12:15:47.521Z,24.86
2018-02-18T12:16:50.556Z,24.91
2018-02-18T12:17:53.704Z,24.97
2018-02-18T12:18:56.812Z,25.01
2018-02-18T12:19:59.941Z,25.07
2018-02-18T12:21:03.216Z,25.10
2018-02-18T12:22:06.769Z,25.15
2018-02-18T12:23:09.782Z,25.22
2018-02-18T12:24:12.928Z,25.28
2018-02-18T12:25:16.038Z,25.34
2018-02-18T12:26:19.055Z,25.36
2018-02-18T12:27:22.065Z,25.38
2018-02-18T12:28:25.106Z,25.42
2018-02-18T12:29:28.117Z,25.45
2018-02-18T12:30:31.269Z,25.45
2018-02-18T12:31:34.266Z,25.46
2018-02-18T12:32:37.265Z,25.45
2018-02-18T12:33:40.325Z,25.45
2018-02-18T12:34:43.365Z,25.41
2018-02-18T12:35:46.396Z,25.45
2018-02-18T12:36:49.421Z,25.42
2018-02-18T12:37:52.435Z,25.42
2018-02-18T12:38:55.516Z,25.36
2018-02-18T12:39:58.538Z,25.35
2018-02-18T12:41:01.593Z,25.32
2018-02-18T12:42:05.021Z,25.31
2018-02-18T12:43:08.056Z,25.22
2018-02-18T12:44:11.066Z,25.01
2018-02-18T12:45:14.118Z,24.77
2018-02-18T12:46:17.175Z,24.70
2018-02-18T12:47:20.497Z,24.64
2018-02-18T12:48:23.614Z,24.62
2018-02-18T12:49:26.644Z,24.60
2018-02-18T12:50:29.661Z,24.58
2018-02-18T12:51:32.661Z,24.52
2018-02-18T12:52:35.688Z,24.49
2018-02-18T12:53:38.714Z,24.48
2018-02-18T12:54:41.909Z,24.45
2018-02-18T12:55:45.080Z,24.41
2018-02-18T12:56:48.078Z,24.36
2018-02-18T12:57:51.171Z,24.35
2018-02-18T12:58:54.184Z,24.34
2018-02-18T12:59:57.203Z,24.29
2018-02-18T13:01:00.224Z,24.27
2018-02-18T13:02:03.533Z,24.21
2018-02-18T13:03:06.602Z,24.21
2018-02-18T13:04:09.622Z,24.17
2018-02-18T13:05:12.644Z,24.15
2018-02-18T13:06:15.712Z,24.11
2018-02-18T13:07:18.805Z,24.12
2018-02-18T13:08:21.825Z,24.01
2018-02-18T13:09:24.874Z,23.99
2018-02-18T13:10:27.903Z,23.96
2018-02-18T13:11:31.297Z,23.94
2018-02-18T13:12:34.340Z,23.93
2018-02-18T13:13:37.355Z,23.93
2018-02-18T13:14:40.373Z,23.89
2018-02-18T13:15:43.400Z,23.87
2018-02-18T13:16:46.484Z,23.86
2018-02-18T13:17:50.396Z,23.86
2018-02-18T13:18:53.483Z,23.87
2018-02-18T13:19:56.576Z,23.86
2018-02-18T13:20:59.815Z,23.87
2018-02-18T13:22:03.268Z,23.84
2018-02-18T13:23:06.492Z,23.87
2018-02-18T13:24:09.543Z,23.89
2018-02-18T13:25:12.689Z,23.91
2018-02-18T13:26:18.346Z,23.97
2018-02-18T13:27:21.378Z,24.00
2018-02-18T13:28:25.119Z,24.04
2018-02-18T13:29:28.141Z,24.10
2018-02-18T13:30:31.150Z,24.12
2018-02-18T13:31:34.157Z,24.19
2018-02-18T13:32:37.663Z,24.25
2018-02-18T13:33:42.318Z,24.28
2018-02-18T13:34:46.129Z,24.29
2018-02-18T13:35:49.183Z,24.32
2018-02-18T13:36:52.609Z,24.35
2018-02-18T13:37:56.254Z,24.36
2018-02-18T13:38:59.947Z,24.38
2018-02-18T13:40:03.457Z,24.41
2018-02-18T13:41:07.280Z,24.39
2018-02-18T13:42:10.296Z,24.44
2018-02-18T13:43:14.374Z,24.44
2018-02-18T13:44:17.440Z,24.45
2018-02-18T13:45:22.274Z,24.46
2018-02-18T13:46:25.324Z,24.48
2018-02-18T13:47:28.339Z,24.48
2018-02-18T13:48:31.403Z,24.46
2018-02-18T13:49:34.994Z,24.48
2018-02-18T13:50:38.022Z,24.49
2018-02-18T13:51:41.062Z,24.48
2018-02-18T13:52:47.357Z,24.49
2018-02-18T13:53:51.001Z,24.48
2018-02-18T13:54:55.754Z,24.49
2018-02-18T13:55:59.332Z,24.52
2018-02-18T13:57:03.829Z,24.48
2018-02-18T13:58:08.642Z,24.51
2018-02-18T13:59:11.757Z,24.53
2018-02-18T14:00:15.707Z,24.53
2018-02-18T14:01:18.725Z,24.56
2018-02-18T14:02:21.734Z,24.55
2018-02-18T14:03:26.404Z,24.51
2018-02-18T14:04:29.537Z,24.49
2018-02-18T14:05:32.818Z,24.41
2018-02-18T14:06:36.593Z,24.42
2018-02-18T14:07:39.811Z,24.42
2018-02-18T14:08:43.385Z,24.35
2018-02-18T14:09:48.315Z,24.34
2018-02-18T14:10:51.424Z,24.28
2018-02-18T14:11:54.737Z,24.28
2018-02-18T14:12:57.788Z,24.24
2018-02-18T14:14:01.550Z,24.21
2018-02-18T14:15:05.842Z,24.18
2018-02-18T14:16:11.218Z,24.14
2018-02-18T14:17:14.612Z,24.12
2018-02-18T14:18:18.167Z,24.10
2018-02-18T14:19:21.176Z,24.05
2018-02-18T14:20:24.217Z,24.05
2018-02-18T14:21:27.915Z,24.10
2018-02-18T14:22:31.622Z,24.07
2018-02-18T14:23:34.824Z,24.07
2018-02-18T14:24:37.861Z,24.04
2018-02-18T14:25:40.927Z,24.03
2018-02-18T14:26:45.827Z,24.01
2018-02-18T14:27:55.303Z,24.01
2018-02-18T14:28:58.375Z,24.04
2018-02-18T14:30:01.805Z,24.03
2018-02-18T14:31:06.933Z,24.00
2018-02-18T14:32:09.999Z,24.00
2018-02-18T14:33:13.054Z,23.99
2018-02-18T14:34:16.647Z,24.01
2018-02-18T14:35:19.637Z,24.01
2018-02-18T14:36:23.185Z,24.04
2018-02-18T14:37:26.292Z,24.05
2018-02-18T14:38:29.321Z,24.08
2018-02-18T14:39:32.700Z,24.10
2018-02-18T14:40:36.923Z,24.14
2018-02-18T14:41:40.076Z,24.15
2018-02-18T14:42:43.153Z,24.19
2018-02-18T14:43:46.192Z,24.22
2018-02-18T14:44:49.479Z,24.25
2018-02-18T14:45:54.466Z,24.29
2018-02-18T14:46:57.892Z,24.34
2018-02-18T14:48:00.956Z,24.38
2018-02-18T14:49:05.722Z,24.39
2018-02-18T14:50:08.780Z,24.39
2018-02-18T14:51:11.805Z,24.38
2018-02-18T14:52:17.197Z,24.35
2018-02-18T14:53:20.246Z,24.31
2018-02-18T14:54:23.271Z,24.31
2018-02-18T14:55:26.434Z,24.31
2018-02-18T14:56:29.541Z,24.28
2018-02-18T14:57:33.238Z,24.31
2018-02-18T14:58:36.393Z,24.29
2018-02-18T14:59:39.525Z,24.27
2018-02-18T15:00:42.560Z,24.22
2018-02-18T15:01:46.107Z,24.18
2018-02-18T15:02:52.073Z,24.18
2018-02-18T15:03:55.352Z,24.15
2018-02-18T15:04:58.354Z,24.14
2018-02-18T15:06:01.397Z,24.15
2018-02-18T15:07:05.332Z,24.15
2018-02-18T15:08:08.395Z,24.15
2018-02-18T15:09:11.470Z,24.14
2018-02-18T15:10:16.292Z,24.15
2018-02-18T15:11:22.071Z,24.14
2018-02-18T15:12:25.286Z,24.19
2018-02-18T15:13:30.570Z,24.18
2018-02-18T15:14:35.341Z,24.19
2018-02-18T15:15:38.377Z,24.22
2018-02-18T15:16:41.415Z,24.25
2018-02-18T15:17:45.121Z,24.21
2018-02-18T15:18:49.044Z,24.22
2018-02-18T15:19:52.100Z,24.24
2018-02-18T15:20:56.521Z,24.24
2018-02-18T15:21:59.548Z,24.19
2018-02-18T15:23:02.917Z,24.14
2018-02-18T15:24:06.826Z,24.12
2018-02-18T15:25:09.824Z,24.11
2018-02-18T15:26:13.566Z,24.10
2018-02-18T15:27:17.364Z,24.12
2018-02-18T15:28:20.414Z,24.11
2018-02-18T15:29:23.465Z,24.12
2018-02-18T15:30:26.513Z,24.11
2018-02-18T15:31:29.580Z,24.12
2018-02-18T15:32:33.329Z,24.08
2018-02-18T15:33:36.465Z,24.08
2018-02-18T15:34:39.504Z,24.04
2018-02-18T15:35:42.528Z,24.04
2018-02-18T15:36:45.873Z,24.03
2018-02-18T15:37:48.945Z,23.99
2018-02-18T15:38:52.073Z,24.00
2018-02-18T15:39:56.016Z,23.97
2018-02-18T15:40:59.127Z,23.96
2018-02-18T15:42:02.287Z,23.93
2018-02-18T15:43:05.794Z,23.90
2018-02-18T15:44:08.888Z,23.90
2018-02-18T15:45:11.947Z,23.86
2018-02-18T15:46:15.097Z,23.84
2018-02-18T15:47:18.131Z,23.83
2018-02-18T15:48:21.162Z,23.77
2018-02-18T15:49:24.477Z,23.77
2018-02-18T15:50:27.844Z,23.73
2018-02-18T15:51:30.930Z,23.74
2018-02-18T15:52:33.980Z,23.73
2018-02-18T15:53:37.383Z,23.70
2018-02-18T15:54:40.410Z,23.69
2018-02-18T15:55:43.547Z,23.64
2018-02-18T15:56:47.290Z,23.62
2018-02-18T15:57:52.612Z,23.59
2018-02-18T15:58:55.723Z,23.59
2018-02-18T15:59:58.746Z,23.56
2018-02-18T16:01:01.821Z,23.53
2018-02-18T16:02:06.352Z,23.55
2018-02-18T16:03:09.374Z,23.50
2018-02-18T16:04:12.429Z,23.49
2018-02-18T16:05:15.652Z,23.49
2018-02-18T16:06:18.794Z,23.45
2018-02-18T16:07:21.835Z,23.42
2018-02-18T16:08:24.920Z,23.42
2018-02-18T16:09:28.552Z,23.42
2018-02-18T16:10:31.648Z,23.41
2018-02-18T16:11:35.811Z,23.38
2018-02-18T16:12:38.822Z,23.36
2018-02-18T16:13:41.903Z,23.34
2018-02-18T16:14:45.346Z,23.31
2018-02-18T16:15:48.391Z,23.31
2018-02-18T16:16:51.542Z,23.28
2018-02-18T16:17:54.639Z,23.27
2018-02-18T16:18:57.682Z,23.27
2018-02-18T16:20:00.685Z,23.25
2018-02-18T16:21:05.430Z,23.28
2018-02-18T16:22:08.452Z,23.25
2018-02-18T16:23:11.508Z,23.24
2018-02-18T16:24:14.516Z,23.24
2018-02-18T16:25:17.976Z,23.21
2018-02-18T16:26:21.000Z,23.17
2018-02-18T16:27:24.353Z,23.17
2018-02-18T16:28:27.716Z,23.18
2018-02-18T16:29:30.717Z,23.18
2018-02-18T16:30:33.743Z,23.14
2018-02-18T16:31:36.780Z,23.15
2018-02-18T16:32:39.851Z,23.13
2018-02-18T16:33:43.262Z,23.13
2018-02-18T16:34:46.586Z,23.13
2018-02-18T16:35:49.705Z,23.13
2018-02-18T16:36:52.755Z,23.11
2018-02-18T16:37:56.546Z,23.11
2018-02-18T16:38:59.770Z,23.10
2018-02-18T16:40:02.928Z,23.10
2018-02-18T16:41:06.170Z,23.08
2018-02-18T16:42:11.010Z,23.10
2018-02-18T16:43:14.994Z,23.08
2018-02-18T16:44:18.218Z,23.07
2018-02-18T16:45:21.245Z,23.05
2018-02-18T16:46:25.651Z,23.05
2018-02-18T16:47:28.753Z,23.08
2018-02-18T16:48:31.824Z,23.07
2018-02-18T16:49:35.866Z,23.04
2018-02-18T16:50:38.880Z,23.04
2018-02-18T16:51:41.908Z,23.05
2018-02-18T16:52:47.001Z,23.04
2018-02-18T16:53:50.098Z,23.05
2018-02-18T16:54:53.979Z,23.02
2018-02-18T16:55:57.570Z,23.04
2018-02-18T16:57:00.595Z,23.02
2018-02-18T16:58:05.514Z,23.01
2018-02-18T16:59:08.815Z,23.02
2018-02-18T23:33:31.712Z,21.52
2018-02-18T23:35:56.245Z,21.74
2018-02-18T23:48:29.324Z,22.09
2018-02-18T23:50:49.504Z,22.11
